Time;durP1;ratioP1;P1;durP2;ratioP2;P2;SDS_P1;SDS_P2;PMS_P1;PMS_P2;Temp;Humidity;BMP_temperature;BMP_pressure;BME280_temperature;BME280_humidity;BME280_pressure;Samples;Min_cycle;Max_cycle;Signal;HPM_P1;HPM_P2
2022/12/12 00:01:48;;;;;;;0.50;0.50;;;;;;;5.60;83.29;94995.44;5133860;28;20277;-64
2022/12/12 00:04:15;;;;;;;7.32;0.70;;;;;;;5.52;83.98;95000.13;5133761;28;20040;-65
2022/12/12 00:06:42;;;;;;;3.63;0.57;;;;;;;5.46;83.71;95003.81;5133681;28;20051;-65
2022/12/12 00:09:09;;;;;;;0.65;0.40;;;;;;;5.42;83.17;95010.03;5133748;28;20061;-64
2022/12/12 00:11:38;;;;;;;0.68;0.65;;;;;;;5.36;82.76;95016.31;5133906;27;20138;-67
2022/12/12 00:14:05;;;;;;;2.67;0.60;;;;;;;5.35;82.61;95035.38;5137637;27;20043;-66
2022/12/12 00:16:32;;;;;;;0.70;0.70;;;;;;;5.31;83.12;95037.28;5137505;27;20130;-67
2022/12/12 00:19:00;;;;;;;1.92;0.70;;;;;;;5.36;83.06;95039.66;5137565;27;20099;-64
2022/12/12 00:21:29;;;;;;;0.60;0.60;;;;;;;5.38;82.94;95045.63;5137506;27;20047;-64
2022/12/12 00:23:56;;;;;;;0.68;0.68;;;;;;;5.30;83.64;95043.34;5137369;27;20088;-68
2022/12/12 00:26:26;;;;;;;3.45;0.65;;;;;;;5.28;84.42;95050.34;5137293;27;20054;-65
2022/12/12 00:28:55;;;;;;;1.50;0.63;;;;;;;5.28;83.95;95047.75;5137448;27;20137;-68
2022/12/12 00:31:22;;;;;;;1.95;0.50;;;;;;;5.24;84.84;95043.59;5137357;27;20367;-65
2022/12/12 00:33:50;;;;;;;2.50;0.60;;;;;;;5.13;85.42;95040.59;5137288;27;20126;-65
2022/12/12 00:36:20;;;;;;;0.70;0.70;;;;;;;5.12;85.48;95057.06;5137158;27;20142;-65
2022/12/12 00:38:47;;;;;;;6.10;0.70;;;;;;;5.13;85.83;95058.75;5137157;27;20164;-65
2022/12/12 00:41:15;;;;;;;0.60;0.60;;;;;;;5.08;86.01;95052.91;5136858;27;20559;-63
2022/12/12 00:43:43;;;;;;;0.70;0.70;;;;;;;5.08;86.43;95053.75;5137049;27;20553;-65
2022/12/12 00:46:13;;;;;;;0.60;0.60;;;;;;;5.08;86.60;95058.91;5137065;27;20047;-69
2022/12/12 00:48:41;;;;;;;1.65;0.63;;;;;;;5.12;86.71;95057.88;5137150;27;20445;-64
2022/12/12 00:51:10;;;;;;;1.40;0.75;;;;;;;5.15;86.73;95051.75;5137027;27;20122;-68
2022/12/12 00:53:38;;;;;;;2.57;0.60;;;;;;;5.12;87.66;95055.28;5136933;27;20047;-64
2022/12/12 00:56:07;;;;;;;1.13;0.75;;;;;;;5.13;87.40;95054.41;5136756;27;20047;-63
2022/12/12 00:58:35;;;;;;;0.60;0.60;;;;;;;5.14;88.04;95052.66;5136778;27;20103;-67
2022/12/12 01:01:08;;;;;;;1.20;0.82;;;;;;;5.17;87.54;95057.72;5136778;27;20561;-63
2022/12/12 01:03:39;;;;;;;2.10;0.63;;;;;;;5.13;86.80;95045.78;5136638;27;20047;-66
2022/12/12 01:06:07;;;;;;;0.90;0.70;;;;;;;5.13;87.02;95056.16;5136589;27;20075;-64
2022/12/12 01:08:34;;;;;;;1.30;0.80;;;;;;;5.14;87.57;95055.22;5136668;27;20403;-67
2022/12/12 01:11:01;;;;;;;2.72;0.80;;;;;;;5.16;87.88;95067.25;5136565;27;20050;-66
2022/12/12 01:13:29;;;;;;;0.55;0.55;;;;;;;5.17;87.72;95070.66;5136428;27;20129;-66
2022/12/12 01:15:56;;;;;;;1.70;1.30;;;;;;;5.21;88.22;95077.41;5136351;27;20055;-66
2022/12/12 01:18:23;;;;;;;2.85;1.25;;;;;;;5.23;88.22;95075.63;5136308;27;20051;-65
2022/12/12 01:20:52;;;;;;;4.97;1.20;;;;;;;5.16;89.19;95074.19;5136374;27;20039;-64
2022/12/12 01:23:19;;;;;;;1.23;0.80;;;;;;;5.11;91.31;95071.75;5136357;27;20047;-64
2022/12/12 01:25:47;;;;;;;1.15;0.93;;;;;;;5.32;92.17;95079.59;5136161;27;20086;-66
2022/12/12 01:28:14;;;;;;;3.85;1.10;;;;;;;5.45;91.76;95077.34;5136306;27;20039;-66
2022/12/12 01:30:41;;;;;;;0.80;0.80;;;;;;;5.50;91.07;95087.50;5136236;27;20079;-67
2022/12/12 01:33:09;;;;;;;4.55;0.82;;;;;;;5.59;90.57;95099.25;5136035;27;20100;-66
2022/12/12 01:35:36;;;;;;;3.83;0.80;;;;;;;5.56;89.13;95095.91;5136020;27;20126;-65
2022/12/12 01:38:04;;;;;;;0.75;0.75;;;;;;;5.58;89.10;95103.63;5136065;27;20134;-65
2022/12/12 01:40:32;;;;;;;1.00;0.80;;;;;;;5.66;89.09;95108.50;5135936;27;20051;-64
2022/12/12 01:42:59;;;;;;;1.55;1.00;;;;;;;5.66;89.04;95109.31;5135792;27;20156;-63
2022/12/12 01:46:25;;;;;;;1.50;1.10;;;;;;;5.63;89.67;95108.63;5135807;27;20047;-62
2022/12/12 01:48:56;;;;;;;1.20;1.10;;;;;;;5.68;90.17;95114.44;5135819;27;20065;-65
2022/12/12 01:51:26;;;;;;;15.65;2.55;;;;;;;5.73;89.49;95115.13;5135732;27;20092;-66
2022/12/12 01:54:01;;;;;;;4.47;1.00;;;;;;;5.69;89.08;95114.38;5135701;27;20134;-64
2022/12/12 01:56:29;;;;;;;1.20;1.10;;;;;;;5.62;89.25;95110.38;5135473;27;20739;-67
2022/12/12 01:58:57;;;;;;;1.40;1.08;;;;;;;5.56;89.68;95113.19;5135628;27;20230;-66
2022/12/12 02:01:25;;;;;;;2.20;2.00;;;;;;;5.49;90.16;95116.97;5135526;27;20400;-66
2022/12/12 02:03:53;;;;;;;2.00;1.63;;;;;;;5.56;90.27;95119.25;5135461;27;20047;-68
2022/12/12 02:06:24;;;;;;;1.77;0.85;;;;;;;5.56;90.15;95121.84;5135438;27;20046;-66
2022/12/12 02:08:55;;;;;;;5.90;0.98;;;;;;;5.60;89.83;95116.53;5135388;27;20047;-66
2022/12/12 02:11:22;;;;;;;1.20;1.00;;;;;;;5.59;89.26;95115.69;5135395;27;20061;-69
2022/12/12 02:13:50;;;;;;;0.95;0.93;;;;;;;5.57;88.73;95120.09;5135602;27;20138;-66
2022/12/12 02:16:26;;;;;;;4.07;0.95;;;;;;;5.55;89.89;95121.91;5135254;27;20082;-65
2022/12/12 02:19:03;;;;;;;0.70;0.70;;;;;;;5.56;89.93;95124.44;5135140;27;20047;-64
2022/12/12 02:21:36;;;;;;;1.38;0.80;;;;;;;5.63;89.91;95125.00;5135106;27;20045;-68
2022/12/12 02:24:32;;;;;;;1.52;1.05;;;;;;;5.69;89.67;95134.31;5135171;27;20039;-67
2022/12/12 02:27:34;;;;;;;1.50;1.20;;;;;;;5.66;89.95;95130.06;5135019;27;20043;-66
2022/12/12 02:30:10;;;;;;;1.17;1.00;;;;;;;5.77;90.46;95121.00;5135039;27;20075;-67
2022/12/12 02:33:15;;;;;;;0.90;0.90;;;;;;;5.86;89.96;95141.38;5134871;27;20564;-66
2022/12/12 02:35:53;;;;;;;1.00;1.00;;;;;;;5.78;89.06;95136.50;5134449;27;20054;-65
2022/12/12 02:38:27;;;;;;;0.80;0.80;;;;;;;5.84;89.32;95157.94;5134782;27;20458;-64
2022/12/12 02:41:05;;;;;;;1.70;0.90;;;;;;;5.87;89.58;95155.22;5135026;27;20142;-63
2022/12/12 02:43:39;;;;;;;6.43;1.42;;;;;;;5.82;90.10;95151.03;5134754;27;20467;-64
2022/12/12 02:46:14;;;;;;;1.77;1.00;;;;;;;5.96;90.68;95154.00;5134670;27;20138;-68
2022/12/12 02:48:50;;;;;;;7.43;0.88;;;;;;;6.01;90.45;95172.78;5134712;27;20058;-63
2022/12/12 02:51:19;;;;;;;4.65;0.75;;;;;;;6.05;89.76;95177.00;5134646;27;20076;-66
2022/12/12 02:53:46;;;;;;;1.00;0.88;;;;;;;6.07;89.48;95180.38;5134499;27;20123;-66
2022/12/12 02:56:45;;;;;;;1.20;1.05;;;;;;;6.12;89.44;95175.00;5134515;27;20046;-63
2022/12/12 02:59:17;;;;;;;0.80;0.80;;;;;;;6.14;89.01;95178.38;5129079;27;20130;-66
2022/12/12 03:01:59;;;;;;;2.13;1.10;;;;;;;6.07;89.57;95175.19;5134457;27;20044;-65
2022/12/12 03:10:25;;;;;;;2.90;0.80;;;;;;;6.13;89.62;95177.53;5134343;27;20503;-65
2022/12/12 03:13:03;;;;;;;4.13;0.85;;;;;;;6.15;89.60;95182.66;5134297;27;20043;-66
2022/12/12 03:15:40;;;;;;;1.52;0.80;;;;;;;6.17;89.86;95194.66;5134290;27;20481;-63
2022/12/12 03:18:20;;;;;;;1.77;1.10;;;;;;;6.21;89.96;95194.53;5134342;27;20174;-68
2022/12/12 03:20:54;;;;;;;1.40;1.30;;;;;;;6.28;90.20;95208.94;5134091;27;20150;-66
2022/12/12 03:23:26;;;;;;;2.20;1.00;;;;;;;6.29;90.35;95195.88;5133988;27;20039;-67
2022/12/12 03:26:00;;;;;;;1.90;1.65;;;;;;;6.19;90.49;95202.38;5134153;27;20078;-67
2022/12/12 03:28:32;;;;;;;1.38;1.27;;;;;;;6.26;90.90;95197.78;5134196;27;20476;-65
2022/12/12 03:31:05;;;;;;;15.95;1.60;;;;;;;6.31;90.76;95208.81;5134079;27;20047;-67
2022/12/12 03:33:37;;;;;;;14.02;1.20;;;;;;;6.30;89.79;95205.34;5134056;28;20058;-67
2022/12/12 03:36:12;;;;;;;1.45;0.95;;;;;;;6.28;89.18;95217.59;5134056;28;20080;-62
2022/12/12 03:38:43;;;;;;;1.52;1.30;;;;;;;6.23;89.53;95214.31;5133986;28;20044;-65
2022/12/12 03:41:15;;;;;;;3.45;1.08;;;;;;;6.25;90.10;95216.84;5133672;28;20078;-69
2022/12/12 03:43:47;;;;;;;0.80;0.80;;;;;;;6.23;90.31;95214.31;5133953;28;20083;-66
2022/12/12 03:46:19;;;;;;;3.65;1.00;;;;;;;6.23;90.65;95213.50;5133979;27;20126;-63
2022/12/12 03:48:50;;;;;;;3.88;1.10;;;;;;;6.27;90.76;95212.44;5137920;27;20083;-67
2022/12/12 03:51:23;;;;;;;1.50;0.85;;;;;;;6.35;90.79;95210.34;5138116;27;20043;-63
2022/12/12 03:53:56;;;;;;;2.83;1.00;;;;;;;6.40;90.56;95215.34;5138070;27;20098;-64
2022/12/12 03:56:30;;;;;;;1.10;1.00;;;;;;;6.38;90.30;95212.81;5137925;27;20130;-67
2022/12/12 03:59:03;;;;;;;1.08;1.00;;;;;;;6.37;90.77;95215.50;5137971;27;20047;-66
2022/12/12 04:01:40;;;;;;;2.72;1.00;;;;;;;6.41;91.15;95217.91;5137848;27;20046;-66
2022/12/12 04:04:15;;;;;;;1.15;1.00;;;;;;;6.44;91.31;95215.16;5137868;27;20070;-68
2022/12/12 04:06:49;;;;;;;3.53;1.02;;;;;;;6.46;91.53;95220.31;5137732;27;20050;-66
2022/12/12 04:15:27;;;;;;;1.13;1.03;;;;;;;6.45;91.14;95218.63;5137865;27;20192;-69
2022/12/12 04:18:05;;;;;;;1.60;1.30;;;;;;;6.34;91.31;95216.47;5116774;27;20086;-65
2022/12/12 04:23:37;;;;;;;2.35;1.10;;;;;;;6.30;91.40;95220.94;5137638;27;20050;-66
2022/12/12 04:29:03;;;;;;;4.03;1.00;;;;;;;6.38;91.15;95219.81;5137519;27;20173;-66
2022/12/12 04:31:34;;;;;;;3.25;0.98;;;;;;;6.32;91.16;95226.91;5137376;27;20569;-66
2022/12/12 04:34:07;;;;;;;1.67;1.42;;;;;;;6.35;90.97;95210.34;5137217;27;20047;-66
2022/12/12 04:36:37;;;;;;;1.20;1.10;;;;;;;6.40;90.04;95218.81;5137127;27;20055;-69
2022/12/12 04:39:09;;;;;;;1.60;1.17;;;;;;;6.42;90.16;95221.34;5137198;27;20076;-67
2022/12/12 04:41:39;;;;;;;1.10;1.00;;;;;;;6.44;90.24;95222.97;5136404;27;20047;-63
2022/12/12 04:44:10;;;;;;;1.58;1.30;;;;;;;6.47;89.85;95228.94;5135793;28;20047;-64
2022/12/12 04:46:40;;;;;;;1.90;1.80;;;;;;;6.43;89.61;95225.63;5135724;28;20134;-66
2022/12/12 04:49:19;;;;;;;7.63;1.52;;;;;;;6.47;89.47;95228.94;5135860;28;20043;-65
2022/12/12 04:51:53;;;;;;;1.80;1.13;;;;;;;6.45;87.88;95234.22;5135803;28;20435;-66
2022/12/12 04:54:28;;;;;;;2.03;1.13;;;;;;;6.39;87.75;95242.25;5135732;28;20503;-66
2022/12/12 04:57:00;;;;;;;1.90;1.35;;;;;;;6.34;87.92;95249.38;5135633;28;20479;-64
2022/12/12 04:59:28;;;;;;;1.90;1.63;;;;;;;6.22;87.72;95254.19;5135195;27;20050;-64
2022/12/12 05:02:01;;;;;;;1.83;1.30;;;;;;;6.21;87.67;95249.91;5135524;28;20047;-69
2022/12/12 05:04:33;;;;;;;1.85;1.70;;;;;;;6.12;87.29;95251.13;5135487;28;20049;-66
2022/12/12 05:07:07;;;;;;;153.20;129.30;;;;;;;6.07;86.83;95258.25;5135465;28;20054;-65
2022/12/12 05:09:37;;;;;;;101.65;76.68;;;;;;;6.06;86.50;95252.22;5135526;28;20043;-69
2022/12/12 05:12:05;;;;;;;6.43;5.50;;;;;;;5.95;85.22;95256.97;5135598;28;20457;-68
2022/12/12 05:14:33;;;;;;;2.45;1.60;;;;;;;5.82;84.87;95267.00;5135435;28;20104;-68
2022/12/12 05:17:06;;;;;;;2.92;1.70;;;;;;;5.75;85.52;95270.75;5135188;28;20047;-65
2022/12/12 05:19:34;;;;;;;1.65;1.20;;;;;;;5.72;85.33;95270.88;5135163;28;20054;-66
2022/12/12 05:22:02;;;;;;;6.40;1.77;;;;;;;5.67;85.56;95271.03;5135334;28;20104;-65
2022/12/12 05:24:32;;;;;;;1.77;1.63;;;;;;;5.60;84.45;95278.19;5135250;28;20134;-65
2022/12/12 05:27:01;;;;;;;7.18;1.17;;;;;;;5.47;84.56;95280.44;5135294;28;20842;-67
2022/12/12 05:29:28;;;;;;;1.98;1.02;;;;;;;5.39;84.91;95290.25;5135130;28;20062;-67
2022/12/12 05:31:56;;;;;;;6.07;2.00;;;;;;;5.40;85.17;95297.13;5135081;28;20039;-69
2022/12/12 05:34:23;;;;;;;7.43;1.00;;;;;;;5.33;84.36;95298.25;5135023;28;20039;-64
2022/12/12 05:36:50;;;;;;;1.10;1.10;;;;;;;5.20;83.54;95287.50;5134978;28;20075;-65
2022/12/12 05:39:18;;;;;;;1.10;1.00;;;;;;;5.10;82.64;95290.44;5134964;28;20055;-64
2022/12/12 05:41:46;;;;;;;1.20;0.98;;;;;;;5.02;82.54;95305.38;5086530;27;1366328;-64
2022/12/12 05:44:14;;;;;;;0.70;0.70;;;;;;;4.90;82.73;95304.94;5135908;27;20051;-65
2022/12/12 05:46:42;;;;;;;2.05;0.93;;;;;;;4.88;82.99;95316.25;5135790;27;20079;-68
2022/12/12 05:49:09;;;;;;;1.95;0.80;;;;;;;4.84;82.90;95312.09;5135847;27;20059;-65
2022/12/12 05:51:37;;;;;;;1.45;1.35;;;;;;;4.79;82.70;95314.84;5135834;27;20104;-61
2022/12/12 05:54:04;;;;;;;4.82;2.53;;;;;;;4.73;82.71;95323.66;5135679;27;20097;-68
2022/12/12 05:56:32;;;;;;;1.27;0.90;;;;;;;4.70;82.82;95330.69;5135492;27;20096;-63
2022/12/12 05:58:59;;;;;;;1.13;0.73;;;;;;;4.68;82.85;95333.34;5135579;27;20071;-67
2022/12/12 06:01:28;;;;;;;1.35;0.88;;;;;;;4.65;82.74;95336.88;5135741;27;20122;-65
2022/12/12 06:03:55;;;;;;;1.50;0.77;;;;;;;4.69;83.20;95337.59;5135559;27;20441;-65
2022/12/12 06:06:23;;;;;;;2.53;0.80;;;;;;;4.70;83.05;95347.09;5135459;27;20454;-63
2022/12/12 06:08:51;;;;;;;0.93;0.90;;;;;;;4.77;82.67;95342.53;5135339;27;20054;-63
2022/12/12 06:11:18;;;;;;;1.67;0.90;;;;;;;4.69;84.33;95340.19;5134718;27;20069;-67
2022/12/12 06:13:47;;;;;;;1.27;1.10;;;;;;;4.67;87.51;95347.19;5135353;27;20071;-64
2022/12/12 06:16:16;;;;;;;1.27;1.10;;;;;;;4.79;87.30;95340.75;5135269;27;20130;-63
2022/12/12 06:18:50;;;;;;;0.60;0.60;;;;;;;4.92;86.58;95349.78;5135253;27;20438;-65
2022/12/12 06:21:17;;;;;;;1.25;0.80;;;;;;;5.12;86.59;95350.00;5135183;27;20039;-66
2022/12/12 06:23:45;;;;;;;1.23;0.90;;;;;;;5.29;85.65;95341.59;5135239;27;20055;-64
2022/12/12 06:26:14;;;;;;;1.00;1.00;;;;;;;5.44;85.24;95343.66;5135231;27;20043;-66
2022/12/12 06:28:49;;;;;;;0.88;0.80;;;;;;;5.60;84.42;95348.25;5135027;27;20484;-67
2022/12/12 06:31:17;;;;;;;0.88;0.80;;;;;;;5.74;84.33;95350.34;5135104;27;20082;-65
2022/12/12 06:33:46;;;;;;;0.63;0.63;;;;;;;5.96;83.99;95348.69;5134924;27;20047;-65
2022/12/12 06:36:22;;;;;;;0.80;0.80;;;;;;;6.28;83.36;95360.41;5135259;27;20058;-67
2022/12/12 06:38:50;;;;;;;0.90;0.90;;;;;;;6.52;82.88;95351.69;5134779;27;20055;-66
2022/12/12 06:41:18;;;;;;;1.73;0.60;;;;;;;6.80;82.76;95355.75;5134483;27;20100;-63
2022/12/12 06:43:45;;;;;;;4.47;1.00;;;;;;;6.90;80.92;95364.88;5134755;27;20051;-67
2022/12/12 06:46:15;;;;;;;0.68;0.68;;;;;;;6.88;80.00;95365.81;5134789;27;20480;-66
2022/12/12 06:48:42;;;;;;;0.82;0.82;;;;;;;6.83;79.86;95377.25;5134828;27;20484;-67
2022/12/12 06:51:14;;;;;;;1.20;0.85;;;;;;;6.80;79.83;95372.19;5134728;27;20103;-66
2022/12/12 06:53:42;;;;;;;2.58;0.70;;;;;;;6.77;80.09;95382.72;5134832;27;20107;-65
2022/12/12 06:56:13;;;;;;;0.80;0.80;;;;;;;6.75;80.60;95381.94;5134564;27;20095;-66
2022/12/12 06:58:40;;;;;;;;;;;;;;;6.70;81.04;95394.28;5134878;27;20130;-65
2022/12/12 07:01:09;;;;;;;0.98;0.98;;;;;;;6.62;81.59;95398.94;5134579;27;19964;-68
2022/12/12 07:03:36;;;;;;;1.60;1.20;;;;;;;6.66;82.37;95405.72;5134431;27;20047;-67
2022/12/12 07:06:05;;;;;;;1.55;1.02;;;;;;;6.65;82.62;95404.84;5134465;27;20047;-66
2022/12/12 07:08:34;;;;;;;3.17;1.55;;;;;;;6.64;83.19;95399.72;5134332;27;20042;-62
2022/12/12 07:11:04;;;;;;;1.73;1.60;;;;;;;6.62;83.97;95414.53;5134358;27;20467;-66
2022/12/12 07:13:32;;;;;;;4.38;1.00;;;;;;;6.60;83.61;95413.75;5134252;27;20058;-67
2022/12/12 07:15:59;;;;;;;0.93;0.93;;;;;;;6.55;82.95;95411.31;5134242;27;20055;-68
2022/12/12 07:18:26;;;;;;;1.33;1.10;;;;;;;6.56;83.66;95419.06;5134120;27;20051;-65
2022/12/12 07:20:54;;;;;;;9.23;1.67;;;;;;;6.74;84.29;95421.00;5133994;27;20112;-65
2022/12/12 07:23:21;;;;;;;1.30;1.20;;;;;;;6.93;84.50;95413.28;5134164;27;20388;-65
2022/12/12 07:25:50;;;;;;;1.25;1.05;;;;;;;7.10;84.13;95416.94;5134364;27;20043;-69
2022/12/12 07:28:18;;;;;;;1.88;1.42;;;;;;;7.26;83.44;95422.34;5134187;27;20043;-66
2022/12/12 07:30:47;;;;;;;10.10;1.80;;;;;;;7.56;83.39;95430.56;5134055;27;20145;-66
2022/12/12 07:33:15;;;;;;;2.50;1.48;;;;;;;8.15;82.15;95437.50;5133986;28;20484;-68
2022/12/12 07:35:43;;;;;;;6.10;1.75;;;;;;;8.53;80.35;95436.66;5133956;28;20043;-63
2022/12/12 07:38:11;;;;;;;1.40;1.30;;;;;;;8.78;79.69;95438.09;5133453;28;20083;-65
2022/12/12 07:40:38;;;;;;;3.38;1.10;;;;;;;9.28;78.22;95440.91;5133953;28;20051;-66
2022/12/12 07:43:08;;;;;;;1.45;1.27;;;;;;;9.96;76.79;95447.00;5133847;28;20039;-62
2022/12/12 07:45:35;;;;;;;1.05;0.95;;;;;;;10.69;74.16;95441.44;5133862;28;20045;-65
2022/12/12 07:48:02;;;;;;;0.98;0.90;;;;;;;11.18;70.62;95439.53;5133884;28;20051;-65
2022/12/12 07:50:29;;;;;;;1.00;0.82;;;;;;;11.99;68.21;95443.50;5133908;28;20048;-67
2022/12/12 07:52:56;;;;;;;6.20;1.02;;;;;;;12.26;66.68;95447.16;5133828;28;20444;-66
2022/12/12 07:55:23;;;;;;;2.97;0.88;;;;;;;12.23;67.01;95442.97;5133860;28;20116;-64
2022/12/12 07:57:52;;;;;;;1.25;1.00;;;;;;;12.18;65.75;95442.38;5133880;28;20089;-69
2022/12/12 08:00:21;;;;;;;2.13;1.00;;;;;;;11.99;66.50;95446.13;5133920;28;20071;-65
2022/12/12 08:02:48;;;;;;;0.90;0.90;;;;;;;12.24;66.82;95434.16;5133892;28;20504;-64
2022/12/12 08:05:17;;;;;;;1.58;0.73;;;;;;;12.92;65.19;95443.91;5133694;28;20134;-65
2022/12/12 08:07:44;;;;;;;2.70;0.90;;;;;;;13.24;64.23;95445.34;5133719;28;20046;-66
2022/12/12 08:10:11;;;;;;;9.38;1.10;;;;;;;13.13;64.47;95452.13;5133745;28;20064;-63
2022/12/12 08:12:38;;;;;;;1.48;1.10;;;;;;;12.78;66.02;95457.91;5133604;28;20051;-65
2022/12/12 08:15:06;;;;;;;2.40;1.20;;;;;;;12.00;68.60;95466.16;5133695;28;20099;-66
2022/12/12 08:17:35;;;;;;;8.73;3.60;;;;;;;12.04;69.97;95465.97;5133510;28;20039;-67
2022/12/12 08:20:02;;;;;;;3.30;1.92;;;;;;;11.91;69.73;95461.47;5133612;28;20043;-65
2022/12/12 08:22:30;;;;;;;6.20;2.78;;;;;;;11.86;69.73;95463.53;5133464;28;20400;-66
2022/12/12 08:24:59;;;;;;;3.53;2.33;;;;;;;13.04;67.36;95465.91;5133540;28;20512;-65
2022/12/12 08:27:27;;;;;;;3.10;2.15;;;;;;;14.60;60.61;95465.13;5133472;28;20050;-61
2022/12/12 08:29:54;;;;;;;1.50;1.27;;;;;;;14.58;59.09;95469.66;5133532;28;20071;-67
2022/12/12 08:32:22;;;;;;;5.82;3.53;;;;;;;13.67;61.14;95465.31;5133504;27;20100;-65
2022/12/12 08:34:50;;;;;;;5.90;2.17;;;;;;;12.76;64.75;95472.91;5137258;27;20108;-63
2022/12/12 08:37:17;;;;;;;8.27;3.45;;;;;;;12.12;66.61;95471.59;5137153;27;20087;-67
2022/12/12 08:39:45;;;;;;;8.38;3.35;;;;;;;11.87;67.84;95476.50;5137078;27;20108;-64
2022/12/12 08:42:12;;;;;;;4.93;4.10;;;;;;;11.62;69.10;95474.53;5136856;27;20096;-62
2022/12/12 08:44:39;;;;;;;8.55;5.28;;;;;;;11.32;70.50;95471.00;5137161;27;20489;-67
2022/12/12 08:47:07;;;;;;;8.55;5.30;;;;;;;11.15;71.66;95473.75;5137106;27;20039;-63
2022/12/12 08:49:34;;;;;;;9.45;5.90;;;;;;;11.02;72.23;95474.47;5136980;27;20043;-66
2022/12/12 08:52:04;;;;;;;6.97;5.93;;;;;;;10.94;72.99;95468.81;5137010;27;20134;-67
2022/12/12 08:54:33;;;;;;;8.57;6.05;;;;;;;10.73;73.99;95469.94;5136943;27;20399;-67
2022/12/12 08:57:00;;;;;;;9.65;6.65;;;;;;;10.61;74.74;95473.22;5136698;27;20473;-64
2022/12/12 08:59:27;;;;;;;8.45;5.10;;;;;;;10.64;75.68;95474.81;5136773;27;20051;-68
2022/12/12 09:01:54;;;;;;;8.88;5.05;;;;;;;10.59;75.49;95473.31;5136831;27;20542;-66
2022/12/12 09:04:22;;;;;;;5.53;4.70;;;;;;;10.70;75.20;95477.97;5136790;27;20043;-66
2022/12/12 09:06:49;;;;;;;10.88;4.72;;;;;;;10.83;74.64;95467.66;5136760;27;20556;-64
2022/12/12 09:09:18;;;;;;;5.78;4.72;;;;;;;11.00;75.35;95473.69;5136725;27;20043;-65
2022/12/12 09:11:45;;;;;;;5.53;4.45;;;;;;;11.28;74.73;95474.72;5136631;27;20501;-69
2022/12/12 09:14:13;;;;;;;6.68;3.42;;;;;;;11.48;73.46;95472.72;5135980;27;20492;-67
2022/12/12 09:16:40;;;;;;;4.32;2.50;;;;;;;11.56;71.95;95480.97;5136451;27;20047;-67
2022/12/12 09:19:07;;;;;;;5.57;3.22;;;;;;;11.60;71.70;95481.63;5136395;27;20135;-63
2022/12/12 09:21:34;;;;;;;2.97;2.15;;;;;;;11.52;72.27;95473.38;5136315;27;20040;-63
2022/12/12 09:24:02;;;;;;;2.67;2.05;;;;;;;11.47;71.21;95478.91;5136407;27;20458;-65
2022/12/12 09:26:31;;;;;;;2.78;1.92;;;;;;;11.32;71.51;95484.09;5136416;27;20043;-64
2022/12/12 09:28:58;;;;;;;1.95;1.80;;;;;;;11.24;72.86;95487.16;5136320;27;20484;-67
2022/12/12 09:31:25;;;;;;;5.75;2.40;;;;;;;11.24;73.65;95483.69;5136206;27;20118;-62
2022/12/12 09:33:53;;;;;;;2.13;1.70;;;;;;;11.12;72.33;95485.25;5136108;27;20411;-65
2022/12/12 09:36:21;;;;;;;3.38;1.73;;;;;;;11.19;71.73;95478.72;5136044;27;20420;-65
2022/12/12 09:38:48;;;;;;;2.55;1.98;;;;;;;11.27;71.59;95482.66;5136030;27;20115;-67
2022/12/12 09:41:18;;;;;;;4.85;3.40;;;;;;;11.26;72.23;95481.84;5135713;27;20497;-65
2022/12/12 09:43:53;;;;;;;6.57;2.45;;;;;;;11.39;71.81;95479.34;5135717;27;20059;-63
2022/12/12 09:46:29;;;;;;;3.47;2.90;;;;;;;11.20;70.45;95476.97;5135204;27;20117;-66
2022/12/12 09:49:03;;;;;;;3.88;3.17;;;;;;;11.13;70.35;95479.06;5135831;27;20047;-63
2022/12/12 09:51:34;;;;;;;4.15;2.30;;;;;;;11.19;70.41;95477.88;5135847;27;20077;-69
2022/12/12 09:54:01;;;;;;;2.10;1.70;;;;;;;11.16;68.72;95475.41;5135881;27;20108;-65
2022/12/12 09:56:36;;;;;;;3.30;2.20;;;;;;;11.23;68.32;95469.75;5135658;27;20044;-65
2022/12/12 09:59:11;;;;;;;4.32;2.03;;;;;;;11.25;69.10;95467.03;5135679;27;20138;-66
2022/12/12 10:01:45;;;;;;;5.22;2.40;;;;;;;11.33;68.86;95464.00;5135538;27;20051;-65
2022/12/12 10:04:24;;;;;;;2.40;2.13;;;;;;;11.28;68.63;95461.63;5135529;27;20055;-64
2022/12/12 10:07:00;;;;;;;2.30;1.95;;;;;;;11.33;70.70;95449.13;5135520;27;20563;-65
2022/12/12 10:09:46;;;;;;;3.55;2.60;;;;;;;11.33;72.78;95456.13;5135471;27;20107;-64
2022/12/12 10:12:15;;;;;;;5.25;2.95;;;;;;;11.54;71.55;95456.66;5135331;27;20051;-66
2022/12/12 10:14:48;;;;;;;5.35;2.13;;;;;;;11.85;69.52;95451.34;5135371;27;20053;-67
2022/12/12 10:17:19;;;;;;;4.95;2.40;;;;;;;11.90;68.04;95446.69;5135229;27;20051;-65
2022/12/12 10:19:50;;;;;;;2.92;2.13;;;;;;;12.01;67.93;95446.00;5135174;27;20504;-67
2022/12/12 10:22:22;;;;;;;;;;;;;;;12.08;67.61;95446.53;5135709;27;20051;-65
2022/12/12 10:24:53;;;;;;;2.85;1.48;;;;;;;11.96;66.70;95450.69;5135206;27;19926;-64
2022/12/12 10:27:23;;;;;;;2.78;2.00;;;;;;;11.98;68.68;95448.84;5135140;27;20043;-68
2022/12/12 10:29:53;;;;;;;2.78;1.70;;;;;;;11.81;69.84;95445.47;5135064;27;20081;-64
2022/12/12 10:32:33;;;;;;;1.60;1.48;;;;;;;11.77;69.77;95446.56;5135009;27;20122;-66
2022/12/12 10:35:11;;;;;;;3.03;2.00;;;;;;;11.92;67.93;95439.56;5134975;27;20043;-63
2022/12/12 10:37:50;;;;;;;3.42;1.80;;;;;;;12.05;68.91;95433.56;5134937;27;20083;-66
2022/12/12 10:40:33;;;;;;;2.92;1.98;;;;;;;12.17;67.41;95432.84;5134826;27;20492;-66
2022/12/12 10:43:05;;;;;;;2.85;2.15;;;;;;;12.27;66.38;95438.34;5134587;27;20050;-66
2022/12/12 10:45:59;;;;;;;4.25;1.88;;;;;;;12.15;65.34;95436.47;5134678;27;20075;-68
2022/12/12 10:48:28;;;;;;;5.07;2.08;;;;;;;12.05;67.51;95438.81;5134612;27;20108;-63
2022/12/12 10:51:00;;;;;;;2.60;2.25;;;;;;;12.11;67.27;95434.09;5134667;27;20047;-65
2022/12/12 10:53:29;;;;;;;2.83;1.70;;;;;;;12.09;65.37;95435.94;5134764;27;20043;-65
2022/12/12 10:56:00;;;;;;;3.28;1.40;;;;;;;12.09;65.49;95430.69;5134141;27;20039;-68
2022/12/12 10:58:36;;;;;;;2.70;1.45;;;;;;;12.13;66.27;95426.94;5134363;27;20043;-66
2022/12/12 11:01:12;;;;;;;2.55;1.88;;;;;;;12.23;64.92;95431.63;5134408;27;20130;-66
2022/12/12 11:03:42;;;;;;;2.95;1.88;;;;;;;12.29;65.53;95428.63;5134578;27;20047;-66
2022/12/12 11:06:15;;;;;;;1.92;1.50;;;;;;;12.25;66.37;95419.25;5134580;27;20058;-67
2022/12/12 11:08:54;;;;;;;4.05;1.48;;;;;;;12.35;65.47;95422.16;5134279;27;20051;-66
2022/12/12 11:11:23;;;;;;;2.58;1.55;;;;;;;12.50;65.19;95413.28;5134338;27;20043;-64
2022/12/12 11:13:53;;;;;;;2.13;1.38;;;;;;;12.48;63.55;95416.94;5134296;27;20108;-66
2022/12/12 11:16:23;;;;;;;7.50;1.70;;;;;;;12.51;63.79;95408.91;5134294;27;20086;-65
2022/12/12 11:19:04;;;;;;;1.80;1.27;;;;;;;12.57;64.06;95413.75;5134120;27;20082;-65
2022/12/12 11:21:33;;;;;;;2.80;1.40;;;;;;;12.69;62.73;95406.88;5134285;27;20051;-66
2022/12/12 11:24:04;;;;;;;1.80;1.10;;;;;;;12.74;60.41;95406.59;5134089;27;20043;-63
2022/12/12 11:26:42;;;;;;;3.47;1.30;;;;;;;12.66;59.63;95408.84;5134240;27;20043;-65
2022/12/12 11:29:27;;;;;;;4.22;1.40;;;;;;;12.69;59.49;95411.28;5134140;27;20049;-65
2022/12/12 11:31:57;;;;;;;2.33;1.30;;;;;;;12.71;60.74;95401.53;5134080;27;20051;-65
2022/12/12 11:34:26;;;;;;;4.15;0.95;;;;;;;12.75;61.17;95408.25;5134062;27;20134;-66
2022/12/12 11:36:55;;;;;;;1.40;1.20;;;;;;;12.61;59.84;95404.75;5134011;28;20049;-64
2022/12/12 11:39:27;;;;;;;1.35;1.25;;;;;;;12.51;60.86;95415.00;5133921;28;20125;-66
2022/12/12 11:41:58;;;;;;;1.40;1.10;;;;;;;12.45;59.44;95414.53;5133835;28;20051;-65
2022/12/12 11:44:26;;;;;;;2.28;1.00;;;;;;;12.35;59.75;95417.75;5133918;28;20083;-66
2022/12/12 11:46:55;;;;;;;2.17;1.00;;;;;;;12.36;59.70;95411.56;5134005;28;20076;-66
2022/12/12 11:49:23;;;;;;;2.35;1.17;;;;;;;12.41;58.87;95403.41;5133866;28;20074;-66
2022/12/12 11:51:50;;;;;;;5.97;1.38;;;;;;;12.50;60.38;95400.19;5133869;28;20043;-68
2022/12/12 11:54:22;;;;;;;5.72;1.02;;;;;;;12.66;59.18;95395.72;5133950;28;20080;-64
2022/12/12 11:56:54;;;;;;;1.83;1.02;;;;;;;12.70;57.50;95399.84;5133843;28;20039;-65
2022/12/12 11:59:53;;;;;;;2.22;1.10;;;;;;;12.62;61.56;95388.06;5133722;28;20223;-64
2022/12/12 12:02:55;;;;;;;1.90;1.13;;;;;;;12.60;61.95;95400.44;5133744;28;20099;-65
2022/12/12 12:05:32;;;;;;;3.40;1.02;;;;;;;12.69;59.90;95390.28;5133836;28;20047;-66
2022/12/12 12:08:14;;;;;;;6.10;1.27;;;;;;;12.65;59.11;95384.41;5134584;27;20466;-67
2022/12/12 12:10:57;;;;;;;2.88;1.27;;;;;;;12.61;60.24;95390.78;5137656;27;20100;-63
2022/12/12 12:13:42;;;;;;;3.03;1.27;;;;;;;12.60;60.92;95383.84;5137669;27;20456;-68
2022/12/12 12:16:21;;;;;;;2.05;1.40;;;;;;;12.64;60.39;95386.19;5137764;27;20044;-64